sensor_id;sensor_type;location;lat;lon;timestamp;P1;durP1;ratioP1;P2;durP2;ratioP2
18793;SDS011;29610;49.022;12.114;2022-11-20T00:01:38;42.87;;;18.73;;
18793;SDS011;29610;49.022;12.114;2022-11-20T00:04:08;44.10;;;19.07;;
18793;SDS011;29610;49.022;12.114;2022-11-20T00:06:38;38.85;;;18.50;;
18793;SDS011;29610;49.022;12.114;2022-11-20T00:09:09;45.30;;;18.10;;
18793;SDS011;29610;49.022;12.114;2022-11-20T00:11:38;45.33;;;20.75;;
18793;SDS011;29610;49.022;12.114;2022-11-20T00:14:09;43.83;;;18.80;;
18793;SDS011;29610;49.022;12.114;2022-11-20T00:16:38;40.97;;;19.40;;
18793;SDS011;29610;49.022;12.114;2022-11-20T00:19:07;47.28;;;20.27;;
18793;SDS011;29610;49.022;12.114;2022-11-20T00:21:37;44.30;;;19.90;;
18793;SDS011;29610;49.022;12.114;2022-11-20T00:24:08;50.43;;;22.10;;
18793;SDS011;29610;49.022;12.114;2022-11-20T00:26:37;40.30;;;18.30;;
18793;SDS011;29610;49.022;12.114;2022-11-20T00:29:06;46.20;;;19.85;;
18793;SDS011;29610;49.022;12.114;2022-11-20T00:31:37;49.58;;;18.75;;
18793;SDS011;29610;49.022;12.114;2022-11-20T00:34:06;39.78;;;20.05;;
18793;SDS011;29610;49.022;12.114;2022-11-20T00:36:34;49.77;;;20.10;;
18793;SDS011;29610;49.022;12.114;2022-11-20T00:39:03;46.42;;;21.50;;
18793;SDS011;29610;49.022;12.114;2022-11-20T00:41:32;43.95;;;20.58;;
18793;SDS011;29610;49.022;12.114;2022-11-20T00:44:01;57.42;;;20.83;;
18793;SDS011;29610;49.022;12.114;2022-11-20T00:46:31;50.15;;;21.70;;
18793;SDS011;29610;49.022;12.114;2022-11-20T00:48:59;41.53;;;18.45;;
18793;SDS011;29610;49.022;12.114;2022-11-20T00:51:28;41.40;;;20.05;;
18793;SDS011;29610;49.022;12.114;2022-11-20T00:53:57;42.95;;;20.52;;
18793;SDS011;29610;49.022;12.114;2022-11-20T00:56:28;46.03;;;19.73;;
18793;SDS011;29610;49.022;12.114;2022-11-20T00:58:58;45.77;;;19.13;;
18793;SDS011;29610;49.022;12.114;2022-11-20T01:01:28;43.80;;;19.17;;
18793;SDS011;29610;49.022;12.114;2022-11-20T01:03:59;51.22;;;21.33;;
18793;SDS011;29610;49.022;12.114;2022-11-20T01:06:29;42.57;;;19.60;;
18793;SDS011;29610;49.022;12.114;2022-11-20T01:09:01;45.33;;;20.02;;
18793;SDS011;29610;49.022;12.114;2022-11-20T01:11:34;43.85;;;20.35;;
18793;SDS011;29610;49.022;12.114;2022-11-20T01:14:07;42.80;;;20.97;;
18793;SDS011;29610;49.022;12.114;2022-11-20T01:16:41;46.83;;;22.23;;
18793;SDS011;29610;49.022;12.114;2022-11-20T01:19:15;46.37;;;20.10;;
18793;SDS011;29610;49.022;12.114;2022-11-20T01:21:47;49.77;;;20.60;;
18793;SDS011;29610;49.022;12.114;2022-11-20T01:24:19;43.40;;;21.03;;
18793;SDS011;29610;49.022;12.114;2022-11-20T01:26:50;55.08;;;21.60;;
18793;SDS011;29610;49.022;12.114;2022-11-20T01:29:20;48.35;;;23.23;;
18793;SDS011;29610;49.022;12.114;2022-11-20T01:31:52;52.95;;;22.70;;
18793;SDS011;29610;49.022;12.114;2022-11-20T01:34:21;49.92;;;19.73;;
18793;SDS011;29610;49.022;12.114;2022-11-20T01:36:51;48.92;;;20.67;;
18793;SDS011;29610;49.022;12.114;2022-11-20T01:39:21;44.22;;;18.35;;
18793;SDS011;29610;49.022;12.114;2022-11-20T01:41:52;50.83;;;22.20;;
18793;SDS011;29610;49.022;12.114;2022-11-20T01:44:48;47.47;;;20.17;;
18793;SDS011;29610;49.022;12.114;2022-11-20T01:47:24;53.40;;;19.97;;
18793;SDS011;29610;49.022;12.114;2022-11-20T01:50:01;44.87;;;18.40;;
18793;SDS011;29610;49.022;12.114;2022-11-20T01:52:38;45.20;;;19.40;;
18793;SDS011;29610;49.022;12.114;2022-11-20T01:55:13;44.07;;;22.47;;
18793;SDS011;29610;49.022;12.114;2022-11-20T01:57:47;47.27;;;20.33;;
18793;SDS011;29610;49.022;12.114;2022-11-20T02:00:18;42.10;;;19.80;;
18793;SDS011;29610;49.022;12.114;2022-11-20T02:02:50;51.90;;;21.05;;
18793;SDS011;29610;49.022;12.114;2022-11-20T02:05:25;51.00;;;21.13;;
18793;SDS011;29610;49.022;12.114;2022-11-20T02:08:01;45.05;;;20.30;;
18793;SDS011;29610;49.022;12.114;2022-11-20T02:10:32;47.30;;;19.63;;
18793;SDS011;29610;49.022;12.114;2022-11-20T02:13:01;44.78;;;20.40;;
18793;SDS011;29610;49.022;12.114;2022-11-20T02:15:48;50.25;;;20.40;;
18793;SDS011;29610;49.022;12.114;2022-11-20T02:18:19;48.97;;;20.20;;
18793;SDS011;29610;49.022;12.114;2022-11-20T02:20:49;47.67;;;21.80;;
18793;SDS011;29610;49.022;12.114;2022-11-20T02:23:27;42.10;;;19.48;;
18793;SDS011;29610;49.022;12.114;2022-11-20T02:26:08;46.10;;;19.73;;
18793;SDS011;29610;49.022;12.114;2022-11-20T02:28:42;46.67;;;20.33;;
18793;SDS011;29610;49.022;12.114;2022-11-20T02:31:10;45.33;;;19.97;;
18793;SDS011;29610;49.022;12.114;2022-11-20T02:33:39;48.80;;;21.65;;
18793;SDS011;29610;49.022;12.114;2022-11-20T02:36:08;47.90;;;19.50;;
18793;SDS011;29610;49.022;12.114;2022-11-20T02:38:42;47.50;;;18.90;;
18793;SDS011;29610;49.022;12.114;2022-11-20T02:41:12;46.10;;;17.53;;
18793;SDS011;29610;49.022;12.114;2022-11-20T02:43:41;45.43;;;19.00;;
18793;SDS011;29610;49.022;12.114;2022-11-20T02:46:09;59.40;;;22.57;;
18793;SDS011;29610;49.022;12.114;2022-11-20T02:48:38;47.10;;;21.00;;
18793;SDS011;29610;49.022;12.114;2022-11-20T02:51:07;52.03;;;19.97;;
18793;SDS011;29610;49.022;12.114;2022-11-20T02:53:36;41.75;;;18.80;;
18793;SDS011;29610;49.022;12.114;2022-11-20T02:56:05;42.47;;;19.40;;
18793;SDS011;29610;49.022;12.114;2022-11-20T02:58:36;43.87;;;19.87;;
18793;SDS011;29610;49.022;12.114;2022-11-20T03:01:05;45.57;;;19.80;;
18793;SDS011;29610;49.022;12.114;2022-11-20T03:03:34;43.83;;;20.50;;
18793;SDS011;29610;49.022;12.114;2022-11-20T03:06:02;44.72;;;18.77;;
18793;SDS011;29610;49.022;12.114;2022-11-20T03:08:31;48.80;;;20.33;;
18793;SDS011;29610;49.022;12.114;2022-11-20T03:11:04;37.00;;;16.83;;
18793;SDS011;29610;49.022;12.114;2022-11-20T03:13:34;46.60;;;19.42;;
18793;SDS011;29610;49.022;12.114;2022-11-20T03:16:08;46.55;;;19.40;;
18793;SDS011;29610;49.022;12.114;2022-11-20T03:18:39;43.80;;;19.20;;
18793;SDS011;29610;49.022;12.114;2022-11-20T03:21:09;45.37;;;20.20;;
18793;SDS011;29610;49.022;12.114;2022-11-20T03:23:40;42.27;;;18.47;;
18793;SDS011;29610;49.022;12.114;2022-11-20T03:26:10;41.47;;;19.20;;
18793;SDS011;29610;49.022;12.114;2022-11-20T03:28:47;46.70;;;18.70;;
18793;SDS011;29610;49.022;12.114;2022-11-20T03:31:18;40.93;;;18.57;;
18793;SDS011;29610;49.022;12.114;2022-11-20T03:33:49;40.80;;;17.60;;
18793;SDS011;29610;49.022;12.114;2022-11-20T03:36:18;44.67;;;18.87;;
18793;SDS011;29610;49.022;12.114;2022-11-20T03:38:49;44.53;;;20.00;;
18793;SDS011;29610;49.022;12.114;2022-11-20T03:41:19;42.10;;;19.47;;
18793;SDS011;29610;49.022;12.114;2022-11-20T03:43:52;46.13;;;19.93;;
18793;SDS011;29610;49.022;12.114;2022-11-20T03:46:23;48.92;;;18.88;;
18793;SDS011;29610;49.022;12.114;2022-11-20T03:48:52;43.50;;;19.73;;
18793;SDS011;29610;49.022;12.114;2022-11-20T03:51:22;46.87;;;20.30;;
18793;SDS011;29610;49.022;12.114;2022-11-20T03:53:53;43.10;;;18.77;;
18793;SDS011;29610;49.022;12.114;2022-11-20T03:56:26;45.28;;;21.02;;
18793;SDS011;29610;49.022;12.114;2022-11-20T03:58:58;48.08;;;19.25;;
18793;SDS011;29610;49.022;12.114;2022-11-20T04:01:29;38.40;;;17.63;;
18793;SDS011;29610;49.022;12.114;2022-11-20T04:04:00;38.43;;;16.47;;
18793;SDS011;29610;49.022;12.114;2022-11-20T04:06:29;35.07;;;17.00;;
18793;SDS011;29610;49.022;12.114;2022-11-20T04:09:02;38.33;;;16.67;;
18793;SDS011;29610;49.022;12.114;2022-11-20T04:11:32;39.97;;;16.87;;
18793;SDS011;29610;49.022;12.114;2022-11-20T04:14:06;35.67;;;18.80;;
18793;SDS011;29610;49.022;12.114;2022-11-20T04:16:42;40.20;;;16.93;;
18793;SDS011;29610;49.022;12.114;2022-11-20T04:19:11;42.77;;;18.73;;
18793;SDS011;29610;49.022;12.114;2022-11-20T04:21:43;45.83;;;19.80;;
18793;SDS011;29610;49.022;12.114;2022-11-20T04:24:12;38.40;;;16.90;;
18793;SDS011;29610;49.022;12.114;2022-11-20T04:26:41;40.57;;;17.60;;
18793;SDS011;29610;49.022;12.114;2022-11-20T04:29:11;37.33;;;17.90;;
18793;SDS011;29610;49.022;12.114;2022-11-20T04:31:40;38.47;;;17.90;;
18793;SDS011;29610;49.022;12.114;2022-11-20T04:34:10;46.80;;;20.20;;
18793;SDS011;29610;49.022;12.114;2022-11-20T04:36:40;44.17;;;18.53;;
18793;SDS011;29610;49.022;12.114;2022-11-20T04:39:11;41.90;;;18.43;;
18793;SDS011;29610;49.022;12.114;2022-11-20T04:41:42;44.10;;;20.40;;
18793;SDS011;29610;49.022;12.114;2022-11-20T04:44:12;45.23;;;21.03;;
18793;SDS011;29610;49.022;12.114;2022-11-20T04:46:41;50.50;;;20.60;;
18793;SDS011;29610;49.022;12.114;2022-11-20T04:49:10;45.90;;;19.33;;
18793;SDS011;29610;49.022;12.114;2022-11-20T04:51:39;45.92;;;19.67;;
18793;SDS011;29610;49.022;12.114;2022-11-20T04:54:08;49.80;;;20.00;;
18793;SDS011;29610;49.022;12.114;2022-11-20T04:56:38;50.87;;;20.30;;
18793;SDS011;29610;49.022;12.114;2022-11-20T04:59:07;57.87;;;21.23;;
18793;SDS011;29610;49.022;12.114;2022-11-20T05:01:37;51.10;;;20.73;;
18793;SDS011;29610;49.022;12.114;2022-11-20T05:04:06;44.67;;;18.93;;
18793;SDS011;29610;49.022;12.114;2022-11-20T05:06:35;53.50;;;19.47;;
18793;SDS011;29610;49.022;12.114;2022-11-20T05:09:03;51.33;;;20.13;;
18793;SDS011;29610;49.022;12.114;2022-11-20T05:11:32;64.63;;;21.23;;
18793;SDS011;29610;49.022;12.114;2022-11-20T05:14:01;52.97;;;20.30;;
18793;SDS011;29610;49.022;12.114;2022-11-20T05:16:29;51.73;;;21.20;;
18793;SDS011;29610;49.022;12.114;2022-11-20T05:18:59;47.03;;;19.07;;
18793;SDS011;29610;49.022;12.114;2022-11-20T05:21:29;45.37;;;20.03;;
18793;SDS011;29610;49.022;12.114;2022-11-20T05:23:58;49.60;;;19.67;;
18793;SDS011;29610;49.022;12.114;2022-11-20T05:26:27;49.13;;;21.07;;
18793;SDS011;29610;49.022;12.114;2022-11-20T05:28:55;50.23;;;20.77;;
18793;SDS011;29610;49.022;12.114;2022-11-20T05:31:24;52.57;;;19.90;;
18793;SDS011;29610;49.022;12.114;2022-11-20T05:33:54;58.23;;;21.10;;
18793;SDS011;29610;49.022;12.114;2022-11-20T05:36:25;50.17;;;19.97;;
18793;SDS011;29610;49.022;12.114;2022-11-20T05:38:54;54.40;;;22.00;;
18793;SDS011;29610;49.022;12.114;2022-11-20T05:41:27;54.17;;;22.45;;
18793;SDS011;29610;49.022;12.114;2022-11-20T05:43:56;61.97;;;21.40;;
18793;SDS011;29610;49.022;12.114;2022-11-20T05:46:26;56.87;;;21.30;;
18793;SDS011;29610;49.022;12.114;2022-11-20T05:48:55;48.30;;;20.17;;
18793;SDS011;29610;49.022;12.114;2022-11-20T05:51:26;51.07;;;19.50;;
18793;SDS011;29610;49.022;12.114;2022-11-20T05:53:56;60.47;;;21.70;;
18793;SDS011;29610;49.022;12.114;2022-11-20T05:56:25;55.93;;;20.00;;
18793;SDS011;29610;49.022;12.114;2022-11-20T05:58:54;56.13;;;21.67;;
18793;SDS011;29610;49.022;12.114;2022-11-20T06:01:24;50.43;;;20.10;;
18793;SDS011;29610;49.022;12.114;2022-11-20T06:03:53;50.07;;;21.03;;
18793;SDS011;29610;49.022;12.114;2022-11-20T06:06:22;62.17;;;23.70;;
18793;SDS011;29610;49.022;12.114;2022-11-20T06:08:53;56.00;;;24.00;;
18793;SDS011;29610;49.022;12.114;2022-11-20T06:11:22;60.97;;;22.00;;
18793;SDS011;29610;49.022;12.114;2022-11-20T06:13:51;48.50;;;20.57;;
18793;SDS011;29610;49.022;12.114;2022-11-20T06:16:20;52.83;;;24.03;;
18793;SDS011;29610;49.022;12.114;2022-11-20T06:18:48;52.20;;;21.07;;
18793;SDS011;29610;49.022;12.114;2022-11-20T06:21:18;58.40;;;21.10;;
18793;SDS011;29610;49.022;12.114;2022-11-20T06:23:48;53.03;;;21.67;;
18793;SDS011;29610;49.022;12.114;2022-11-20T06:26:21;54.90;;;21.70;;
18793;SDS011;29610;49.022;12.114;2022-11-20T06:28:53;66.33;;;22.07;;
18793;SDS011;29610;49.022;12.114;2022-11-20T06:31:24;49.07;;;21.73;;
18793;SDS011;29610;49.022;12.114;2022-11-20T06:33:53;59.47;;;21.25;;
18793;SDS011;29610;49.022;12.114;2022-11-20T06:36:22;57.23;;;24.67;;
18793;SDS011;29610;49.022;12.114;2022-11-20T06:38:51;57.87;;;22.37;;
18793;SDS011;29610;49.022;12.114;2022-11-20T06:41:21;57.27;;;21.70;;
18793;SDS011;29610;49.022;12.114;2022-11-20T06:43:50;53.87;;;21.40;;
18793;SDS011;29610;49.022;12.114;2022-11-20T06:46:19;53.60;;;21.97;;
18793;SDS011;29610;49.022;12.114;2022-11-20T06:48:49;62.53;;;24.20;;
18793;SDS011;29610;49.022;12.114;2022-11-20T06:51:18;62.40;;;23.23;;
18793;SDS011;29610;49.022;12.114;2022-11-20T06:53:47;61.93;;;23.00;;
18793;SDS011;29610;49.022;12.114;2022-11-20T06:56:16;60.20;;;23.42;;
18793;SDS011;29610;49.022;12.114;2022-11-20T06:58:46;56.20;;;21.47;;
18793;SDS011;29610;49.022;12.114;2022-11-20T07:01:15;54.53;;;20.97;;
18793;SDS011;29610;49.022;12.114;2022-11-20T07:03:44;64.40;;;24.10;;
18793;SDS011;29610;49.022;12.114;2022-11-20T07:06:19;65.97;;;24.23;;
18793;SDS011;29610;49.022;12.114;2022-11-20T07:08:49;74.13;;;25.43;;
18793;SDS011;29610;49.022;12.114;2022-11-20T07:11:19;65.10;;;23.10;;
18793;SDS011;29610;49.022;12.114;2022-11-20T07:13:49;59.27;;;22.50;;
18793;SDS011;29610;49.022;12.114;2022-11-20T07:16:18;65.77;;;23.53;;
18793;SDS011;29610;49.022;12.114;2022-11-20T07:18:47;71.23;;;24.03;;
18793;SDS011;29610;49.022;12.114;2022-11-20T07:21:17;56.13;;;22.87;;
18793;SDS011;29610;49.022;12.114;2022-11-20T07:23:46;64.20;;;25.13;;
18793;SDS011;29610;49.022;12.114;2022-11-20T07:26:15;54.40;;;21.13;;
18793;SDS011;29610;49.022;12.114;2022-11-20T07:28:44;71.83;;;23.83;;
18793;SDS011;29610;49.022;12.114;2022-11-20T07:31:14;66.47;;;22.73;;
18793;SDS011;29610;49.022;12.114;2022-11-20T07:33:45;65.40;;;23.37;;
18793;SDS011;29610;49.022;12.114;2022-11-20T07:36:14;67.70;;;23.90;;
18793;SDS011;29610;49.022;12.114;2022-11-20T07:38:43;64.23;;;24.83;;
18793;SDS011;29610;49.022;12.114;2022-11-20T07:41:11;66.53;;;23.33;;
18793;SDS011;29610;49.022;12.114;2022-11-20T07:43:40;67.00;;;23.63;;
18793;SDS011;29610;49.022;12.114;2022-11-20T07:46:09;73.37;;;25.63;;
18793;SDS011;29610;49.022;12.114;2022-11-20T07:48:39;85.37;;;25.63;;
18793;SDS011;29610;49.022;12.114;2022-11-20T07:51:08;65.90;;;25.50;;
18793;SDS011;29610;49.022;12.114;2022-11-20T07:53:36;68.07;;;25.97;;
18793;SDS011;29610;49.022;12.114;2022-11-20T07:56:05;67.70;;;26.50;;
18793;SDS011;29610;49.022;12.114;2022-11-20T07:58:35;68.97;;;25.50;;
18793;SDS011;29610;49.022;12.114;2022-11-20T08:01:03;75.87;;;26.20;;
18793;SDS011;29610;49.022;12.114;2022-11-20T08:03:33;74.13;;;26.60;;
18793;SDS011;29610;49.022;12.114;2022-11-20T08:06:06;77.83;;;26.97;;
18793;SDS011;29610;49.022;12.114;2022-11-20T08:08:36;73.70;;;26.53;;
18793;SDS011;29610;49.022;12.114;2022-11-20T08:11:08;72.23;;;25.33;;
18793;SDS011;29610;49.022;12.114;2022-11-20T08:13:55;72.73;;;25.20;;
18793;SDS011;29610;49.022;12.114;2022-11-20T08:16:43;64.57;;;24.50;;
18793;SDS011;29610;49.022;12.114;2022-11-20T08:19:14;65.70;;;25.93;;
18793;SDS011;29610;49.022;12.114;2022-11-20T08:21:47;60.33;;;23.70;;
18793;SDS011;29610;49.022;12.114;2022-11-20T08:24:16;85.30;;;30.23;;
18793;SDS011;29610;49.022;12.114;2022-11-20T08:26:44;72.10;;;25.77;;
18793;SDS011;29610;49.022;12.114;2022-11-20T08:29:13;67.40;;;27.40;;
18793;SDS011;29610;49.022;12.114;2022-11-20T08:31:42;72.03;;;29.13;;
18793;SDS011;29610;49.022;12.114;2022-11-20T08:34:11;60.70;;;24.87;;
18793;SDS011;29610;49.022;12.114;2022-11-20T08:36:44;82.27;;;30.43;;
18793;SDS011;29610;49.022;12.114;2022-11-20T08:39:15;60.73;;;26.70;;
18793;SDS011;29610;49.022;12.114;2022-11-20T08:41:43;59.60;;;24.07;;
18793;SDS011;29610;49.022;12.114;2022-11-20T08:44:12;62.80;;;23.07;;
18793;SDS011;29610;49.022;12.114;2022-11-20T08:46:41;73.27;;;27.77;;
18793;SDS011;29610;49.022;12.114;2022-11-20T08:49:12;67.57;;;25.60;;
18793;SDS011;29610;49.022;12.114;2022-11-20T08:51:42;62.57;;;25.80;;
18793;SDS011;29610;49.022;12.114;2022-11-20T08:54:13;56.93;;;23.60;;
18793;SDS011;29610;49.022;12.114;2022-11-20T08:56:41;63.80;;;26.67;;
18793;SDS011;29610;49.022;12.114;2022-11-20T08:59:10;61.50;;;26.83;;
18793;SDS011;29610;49.022;12.114;2022-11-20T09:01:59;61.57;;;25.43;;
18793;SDS011;29610;49.022;12.114;2022-11-20T09:04:28;62.33;;;26.97;;
18793;SDS011;29610;49.022;12.114;2022-11-20T09:06:56;65.00;;;25.10;;
18793;SDS011;29610;49.022;12.114;2022-11-20T09:09:32;54.50;;;23.90;;
18793;SDS011;29610;49.022;12.114;2022-11-20T09:12:01;61.37;;;26.73;;
18793;SDS011;29610;49.022;12.114;2022-11-20T09:14:30;58.67;;;23.20;;
18793;SDS011;29610;49.022;12.114;2022-11-20T09:16:59;56.80;;;22.13;;
18793;SDS011;29610;49.022;12.114;2022-11-20T09:19:28;56.07;;;23.30;;
18793;SDS011;29610;49.022;12.114;2022-11-20T09:22:06;48.90;;;20.77;;
18793;SDS011;29610;49.022;12.114;2022-11-20T09:24:36;53.87;;;23.07;;
18793;SDS011;29610;49.022;12.114;2022-11-20T09:27:05;51.67;;;23.40;;
18793;SDS011;29610;49.022;12.114;2022-11-20T09:29:34;46.43;;;21.33;;
18793;SDS011;29610;49.022;12.114;2022-11-20T09:32:03;53.17;;;24.10;;
18793;SDS011;29610;49.022;12.114;2022-11-20T09:34:32;50.67;;;21.80;;
18793;SDS011;29610;49.022;12.114;2022-11-20T09:37:01;55.37;;;23.90;;
18793;SDS011;29610;49.022;12.114;2022-11-20T09:39:33;44.17;;;20.60;;
18793;SDS011;29610;49.022;12.114;2022-11-20T09:42:14;49.27;;;22.17;;
18793;SDS011;29610;49.022;12.114;2022-11-20T09:45:08;48.47;;;22.00;;
18793;SDS011;29610;49.022;12.114;2022-11-20T09:47:54;45.47;;;19.43;;
18793;SDS011;29610;49.022;12.114;2022-11-20T09:50:42;43.03;;;20.17;;
18793;SDS011;29610;49.022;12.114;2022-11-20T09:53:20;36.27;;;17.77;;
18793;SDS011;29610;49.022;12.114;2022-11-20T09:55:58;36.90;;;17.80;;
18793;SDS011;29610;49.022;12.114;2022-11-20T09:58:33;44.10;;;21.07;;
18793;SDS011;29610;49.022;12.114;2022-11-20T10:01:10;42.27;;;19.60;;
18793;SDS011;29610;49.022;12.114;2022-11-20T10:03:45;39.43;;;19.37;;
18793;SDS011;29610;49.022;12.114;2022-11-20T10:06:27;36.67;;;18.70;;
18793;SDS011;29610;49.022;12.114;2022-11-20T10:09:13;25.87;;;10.90;;
18793;SDS011;29610;49.022;12.114;2022-11-20T10:11:58;25.50;;;10.20;;
18793;SDS011;29610;49.022;12.114;2022-11-20T10:14:49;19.63;;;9.33;;
18793;SDS011;29610;49.022;12.114;2022-11-20T10:17:41;18.50;;;8.83;;
18793;SDS011;29610;49.022;12.114;2022-11-20T10:20:43;18.43;;;8.70;;
18793;SDS011;29610;49.022;12.114;2022-11-20T10:26:36;16.50;;;8.67;;
18793;SDS011;29610;49.022;12.114;2022-11-20T10:29:12;17.70;;;8.60;;
18793;SDS011;29610;49.022;12.114;2022-11-20T10:31:47;21.43;;;10.60;;
18793;SDS011;29610;49.022;12.114;2022-11-20T10:34:23;19.70;;;10.00;;
18793;SDS011;29610;49.022;12.114;2022-11-20T10:36:58;17.00;;;8.23;;
18793;SDS011;29610;49.022;12.114;2022-11-20T10:39:38;23.10;;;9.50;;
18793;SDS011;29610;49.022;12.114;2022-11-20T10:42:16;22.50;;;8.73;;
18793;SDS011;29610;49.022;12.114;2022-11-20T10:45:01;15.77;;;7.90;;
18793;SDS011;29610;49.022;12.114;2022-11-20T10:47:48;14.47;;;7.43;;
18793;SDS011;29610;49.022;12.114;2022-11-20T10:50:18;20.03;;;8.97;;
18793;SDS011;29610;49.022;12.114;2022-11-20T10:52:52;24.00;;;9.47;;
18793;SDS011;29610;49.022;12.114;2022-11-20T10:55:33;16.30;;;8.80;;
18793;SDS011;29610;49.022;12.114;2022-11-20T10:58:15;15.77;;;7.33;;
18793;SDS011;29610;49.022;12.114;2022-11-20T11:01:13;18.33;;;9.03;;
18793;SDS011;29610;49.022;12.114;2022-11-20T11:03:58;15.50;;;8.30;;
18793;SDS011;29610;49.022;12.114;2022-11-20T11:06:29;18.03;;;9.40;;
18793;SDS011;29610;49.022;12.114;2022-11-20T11:09:08;17.57;;;8.73;;
18793;SDS011;29610;49.022;12.114;2022-11-20T11:11:47;16.03;;;8.00;;
18793;SDS011;29610;49.022;12.114;2022-11-20T11:14:43;16.07;;;8.20;;
18793;SDS011;29610;49.022;12.114;2022-11-20T11:17:25;15.27;;;7.83;;
18793;SDS011;29610;49.022;12.114;2022-11-20T11:20:05;18.10;;;9.00;;
18793;SDS011;29610;49.022;12.114;2022-11-20T11:22:46;15.93;;;8.00;;
18793;SDS011;29610;49.022;12.114;2022-11-20T11:25:21;20.00;;;8.20;;
18793;SDS011;29610;49.022;12.114;2022-11-20T11:27:56;15.00;;;8.23;;
18793;SDS011;29610;49.022;12.114;2022-11-20T11:30:29;16.03;;;8.40;;
18793;SDS011;29610;49.022;12.114;2022-11-20T11:33:09;18.87;;;8.83;;
18793;SDS011;29610;49.022;12.114;2022-11-20T11:35:45;15.73;;;7.63;;
18793;SDS011;29610;49.022;12.114;2022-11-20T11:38:19;18.30;;;8.43;;
18793;SDS011;29610;49.022;12.114;2022-11-20T11:40:57;14.13;;;8.00;;
18793;SDS011;29610;49.022;12.114;2022-11-20T11:43:27;15.17;;;7.80;;
18793;SDS011;29610;49.022;12.114;2022-11-20T11:49:13;16.37;;;7.90;;
18793;SDS011;29610;49.022;12.114;2022-11-20T11:51:51;12.63;;;6.23;;
18793;SDS011;29610;49.022;12.114;2022-11-20T11:54:34;16.33;;;7.33;;
18793;SDS011;29610;49.022;12.114;2022-11-20T11:57:16;15.50;;;8.23;;
18793;SDS011;29610;49.022;12.114;2022-11-20T11:59:54;14.77;;;7.43;;
18793;SDS011;29610;49.022;12.114;2022-11-20T12:02:34;18.57;;;8.30;;
18793;SDS011;29610;49.022;12.114;2022-11-20T12:05:14;15.23;;;7.80;;
18793;SDS011;29610;49.022;12.114;2022-11-20T12:07:51;16.93;;;7.60;;
18793;SDS011;29610;49.022;12.114;2022-11-20T12:10:32;13.03;;;6.97;;
18793;SDS011;29610;49.022;12.114;2022-11-20T12:13:25;18.90;;;6.50;;
18793;SDS011;29610;49.022;12.114;2022-11-20T12:16:17;14.50;;;6.90;;
18793;SDS011;29610;49.022;12.114;2022-11-20T12:18:49;16.47;;;7.43;;
18793;SDS011;29610;49.022;12.114;2022-11-20T12:21:23;16.43;;;7.80;;
18793;SDS011;29610;49.022;12.114;2022-11-20T12:24:06;12.90;;;5.97;;
18793;SDS011;29610;49.022;12.114;2022-11-20T12:27:00;10.67;;;5.67;;
18793;SDS011;29610;49.022;12.114;2022-11-20T12:30:07;11.03;;;4.70;;
18793;SDS011;29610;49.022;12.114;2022-11-20T12:32:42;12.03;;;6.00;;
18793;SDS011;29610;49.022;12.114;2022-11-20T12:35:39;13.50;;;6.40;;
18793;SDS011;29610;49.022;12.114;2022-11-20T12:41:45;14.63;;;5.77;;
18793;SDS011;29610;49.022;12.114;2022-11-20T12:45:25;11.97;;;4.70;;
18793;SDS011;29610;49.022;12.114;2022-11-20T12:48:30;13.80;;;5.17;;
18793;SDS011;29610;49.022;12.114;2022-11-20T12:51:16;10.40;;;4.83;;
18793;SDS011;29610;49.022;12.114;2022-11-20T12:54:18;11.83;;;5.47;;
18793;SDS011;29610;49.022;12.114;2022-11-20T12:57:15;10.67;;;4.90;;
18793;SDS011;29610;49.022;12.114;2022-11-20T13:03:03;10.87;;;5.80;;
18793;SDS011;29610;49.022;12.114;2022-11-20T13:05:55;10.33;;;4.50;;
18793;SDS011;29610;49.022;12.114;2022-11-20T13:08:39;12.30;;;5.67;;
18793;SDS011;29610;49.022;12.114;2022-11-20T13:11:14;11.60;;;4.67;;
18793;SDS011;29610;49.022;12.114;2022-11-20T13:14:00;8.80;;;4.03;;
18793;SDS011;29610;49.022;12.114;2022-11-20T13:16:45;11.73;;;5.03;;
18793;SDS011;29610;49.022;12.114;2022-11-20T13:19:27;10.30;;;4.87;;
18793;SDS011;29610;49.022;12.114;2022-11-20T13:21:58;11.67;;;5.67;;
18793;SDS011;29610;49.022;12.114;2022-11-20T13:24:28;11.13;;;5.03;;
18793;SDS011;29610;49.022;12.114;2022-11-20T13:27:01;15.20;;;5.00;;
18793;SDS011;29610;49.022;12.114;2022-11-20T13:29:36;11.90;;;5.37;;
18793;SDS011;29610;49.022;12.114;2022-11-20T13:32:16;12.20;;;5.10;;
18793;SDS011;29610;49.022;12.114;2022-11-20T13:34:51;11.70;;;5.20;;
18793;SDS011;29610;49.022;12.114;2022-11-20T13:37:25;10.13;;;4.77;;
18793;SDS011;29610;49.022;12.114;2022-11-20T13:40:05;11.97;;;5.03;;
18793;SDS011;29610;49.022;12.114;2022-11-20T13:42:54;12.87;;;5.33;;
18793;SDS011;29610;49.022;12.114;2022-11-20T13:45:35;10.07;;;4.60;;
18793;SDS011;29610;49.022;12.114;2022-11-20T13:48:15;11.93;;;4.67;;
18793;SDS011;29610;49.022;12.114;2022-11-20T13:50:55;10.13;;;4.17;;
18793;SDS011;29610;49.022;12.114;2022-11-20T13:53:59;9.80;;;4.63;;
18793;SDS011;29610;49.022;12.114;2022-11-20T13:56:59;9.60;;;4.53;;
18793;SDS011;29610;49.022;12.114;2022-11-20T13:59:49;8.40;;;3.80;;
18793;SDS011;29610;49.022;12.114;2022-11-20T14:02:28;10.37;;;4.70;;
18793;SDS011;29610;49.022;12.114;2022-11-20T14:04:58;15.13;;;5.07;;
18793;SDS011;29610;49.022;12.114;2022-11-20T14:07:31;10.73;;;4.43;;
18793;SDS011;29610;49.022;12.114;2022-11-20T14:10:18;8.90;;;3.77;;
18793;SDS011;29610;49.022;12.114;2022-11-20T14:12:57;11.00;;;4.03;;
18793;SDS011;29610;49.022;12.114;2022-11-20T14:15:39;10.60;;;3.80;;
18793;SDS011;29610;49.022;12.114;2022-11-20T14:18:12;11.30;;;4.87;;
18793;SDS011;29610;49.022;12.114;2022-11-20T14:20:46;9.80;;;4.53;;
18793;SDS011;29610;49.022;12.114;2022-11-20T14:23:23;17.93;;;6.60;;
18793;SDS011;29610;49.022;12.114;2022-11-20T14:25:57;10.97;;;4.93;;
18793;SDS011;29610;49.022;12.114;2022-11-20T14:28:27;9.80;;;4.37;;
18793;SDS011;29610;49.022;12.114;2022-11-20T14:31:00;10.67;;;4.60;;
18793;SDS011;29610;49.022;12.114;2022-11-20T14:33:29;9.90;;;3.90;;
18793;SDS011;29610;49.022;12.114;2022-11-20T14:36:01;11.87;;;3.30;;
18793;SDS011;29610;49.022;12.114;2022-11-20T14:38:32;10.13;;;5.30;;
18793;SDS011;29610;49.022;12.114;2022-11-20T14:41:17;11.90;;;5.97;;
18793;SDS011;29610;49.022;12.114;2022-11-20T14:43:49;11.50;;;6.40;;
18793;SDS011;29610;49.022;12.114;2022-11-20T14:46:25;8.70;;;3.60;;
18793;SDS011;29610;49.022;12.114;2022-11-20T14:49:13;19.50;;;9.00;;
18793;SDS011;29610;49.022;12.114;2022-11-20T14:51:45;12.93;;;6.87;;
18793;SDS011;29610;49.022;12.114;2022-11-20T14:54:14;15.67;;;5.93;;
18793;SDS011;29610;49.022;12.114;2022-11-20T14:56:53;11.07;;;5.43;;
18793;SDS011;29610;49.022;12.114;2022-11-20T14:59:23;11.00;;;4.80;;
18793;SDS011;29610;49.022;12.114;2022-11-20T15:01:55;9.63;;;4.50;;
18793;SDS011;29610;49.022;12.114;2022-11-20T15:04:29;9.47;;;4.47;;
18793;SDS011;29610;49.022;12.114;2022-11-20T15:06:58;9.07;;;4.37;;